Time;durP1;ratioP1;P1;durP2;ratioP2;P2;SDS_P1;SDS_P2;PMS_P1;PMS_P2;Temp;Humidity;BMP_temperature;BMP_pressure;BME280_temperature;BME280_humidity;BME280_pressure;Samples;Min_cycle;Max_cycle;Signal;HPM_P1;HPM_P2
2022/07/02 00:01:27;;;;;;;9.15;6.47;;;;;;;20.92;56.19;101815.94;4975543;28;98547;-69
2022/07/02 00:04:03;;;;;;;7.60;6.03;;;;;;;21.08;55.83;101815.81;4972036;28;96908;-69
2022/07/02 00:06:30;;;;;;;6.87;6.23;;;;;;;20.88;56.71;101813.50;4971322;28;97664;-70
2022/07/02 00:08:57;;;;;;;8.40;6.13;;;;;;;21.06;55.97;101824.00;4971437;28;99200;-70
2022/07/02 00:11:26;;;;;;;8.73;6.50;;;;;;;20.71;56.86;101827.13;4972089;28;97178;-70
2022/07/02 00:13:54;;;;;;;8.13;7.20;;;;;;;20.93;56.21;101827.53;4971492;28;97059;-71
2022/07/02 00:16:20;;;;;;;10.20;6.75;;;;;;;20.79;56.77;101830.22;4969313;28;99110;-69
2022/07/02 00:18:47;;;;;;;7.95;7.13;;;;;;;20.70;56.69;101828.94;4967807;28;98886;-70
2022/07/02 00:21:14;;;;;;;10.43;6.68;;;;;;;20.81;56.47;101830.97;4970227;28;97381;-70
2022/07/02 00:23:40;;;;;;;11.27;6.90;;;;;;;20.92;56.14;101829.38;4971277;28;96840;-69
2022/07/02 00:26:09;;;;;;;10.63;7.25;;;;;;;20.90;56.01;101831.28;4969890;28;98910;-70
2022/07/02 00:28:41;;;;;;;9.25;7.40;;;;;;;20.82;56.53;101830.88;4964947;28;98934;-70
2022/07/02 00:31:09;;;;;;;8.32;6.95;;;;;;;20.93;56.18;101823.03;4970751;28;98958;-70
2022/07/02 00:33:36;;;;;;;9.25;6.97;;;;;;;20.77;56.50;101840.16;4968826;28;96867;-70
2022/07/02 00:36:03;;;;;;;10.48;6.68;;;;;;;20.80;56.43;101832.81;4971903;28;100531;-70
2022/07/02 00:38:29;;;;;;;10.02;7.13;;;;;;;20.60;56.85;101836.72;4967742;28;99345;-70
2022/07/02 00:40:56;;;;;;;8.73;6.75;;;;;;;20.65;57.03;101839.09;4970012;28;99112;-72
2022/07/02 00:43:23;;;;;;;9.32;6.88;;;;;;;20.64;56.80;101832.00;4968460;28;96873;-70
2022/07/02 00:45:51;;;;;;;9.15;6.95;;;;;;;20.64;56.88;101840.06;4969493;28;100170;-71
2022/07/02 00:48:18;;;;;;;8.13;6.45;;;;;;;20.81;56.16;101839.88;4967860;28;102242;-71
2022/07/02 00:50:45;;;;;;;11.10;6.82;;;;;;;20.77;56.14;101841.03;4968541;28;96959;-71
2022/07/02 00:53:11;;;;;;;9.70;6.20;;;;;;;20.77;56.40;101837.50;4977216;28;98571;-71
2022/07/02 00:55:38;;;;;;;12.07;6.80;;;;;;;20.77;56.20;101832.13;4970115;28;99126;-70
2022/07/02 00:58:05;;;;;;;9.27;6.70;;;;;;;20.72;55.78;101837.78;4968563;28;98842;-70
2022/07/02 01:00:31;;;;;;;9.50;7.13;;;;;;;20.65;55.82;101844.47;4968710;28;97822;-70
2022/07/02 01:03:00;;;;;;;6.95;6.13;;;;;;;20.80;55.29;101840.88;4967448;28;96977;-69
2022/07/02 01:05:29;;;;;;;8.02;6.70;;;;;;;20.79;55.55;101836.44;4967687;28;99567;-70
2022/07/02 01:10:44;;;;;;;7.05;6.30;;;;;;;20.79;55.86;101841.81;4933414;28;99202;-70
2022/07/02 01:13:12;;;;;;;10.43;6.53;;;;;;;20.66;56.06;101840.84;4970673;28;96844;-70
2022/07/02 01:15:39;;;;;;;7.75;6.55;;;;;;;20.79;55.34;101833.75;4970231;28;100620;-70
2022/07/02 01:18:06;;;;;;;13.70;6.55;;;;;;;20.65;56.24;101833.72;4964786;28;99100;-71
2022/07/02 01:20:34;;;;;;;10.82;6.43;;;;;;;20.39;56.46;101834.44;4967945;28;99386;-70
2022/07/02 01:23:02;;;;;;;10.40;7.38;;;;;;;20.54;56.02;101841.56;4970308;28;96794;-70
2022/07/02 01:25:28;;;;;;;8.52;6.38;;;;;;;20.43;56.17;101838.66;4970525;28;100746;-70
2022/07/02 01:27:54;;;;;;;10.07;6.78;;;;;;;20.67;56.41;101839.88;4967849;28;99195;-71
2022/07/02 01:30:21;;;;;;;10.00;6.72;;;;;;;20.77;56.36;101841.03;4970234;28;98913;-70
2022/07/02 01:32:47;;;;;;;11.07;7.72;;;;;;;20.73;56.23;101841.31;4970224;28;97009;-70
2022/07/02 01:35:14;;;;;;;12.65;8.00;;;;;;;20.89;56.20;101842.97;4970307;28;98890;-70
2022/07/02 01:37:41;;;;;;;7.72;7.03;;;;;;;20.99;55.92;101844.16;4967626;28;98821;-70
2022/07/02 01:40:10;;;;;;;7.95;6.65;;;;;;;21.04;55.57;101847.41;4968196;28;98913;-70
2022/07/02 01:42:37;;;;;;;8.52;7.18;;;;;;;20.89;56.18;101840.28;4968771;28;97721;-70
2022/07/02 01:45:04;;;;;;;10.23;8.43;;;;;;;20.86;55.68;101837.81;4969351;28;99217;-70
2022/07/02 01:47:30;;;;;;;9.95;7.70;;;;;;;20.73;55.95;101839.50;4966225;28;100245;-70
2022/07/02 01:49:57;;;;;;;13.25;7.85;;;;;;;20.66;56.37;101851.56;4968268;28;98920;-71
2022/07/02 01:52:23;;;;;;;9.52;7.45;;;;;;;20.72;55.72;101844.97;4969740;28;97670;-71
2022/07/02 01:54:50;;;;;;;8.35;6.78;;;;;;;20.80;55.75;101856.97;4971771;28;99161;-70
2022/07/02 01:57:17;;;;;;;11.73;7.40;;;;;;;20.86;55.71;101853.06;4967329;28;99195;-71
2022/07/02 01:59:44;;;;;;;12.00;7.75;;;;;;;20.85;55.80;101851.31;4970094;28;96764;-71
2022/07/02 02:02:10;;;;;;;8.23;7.53;;;;;;;20.91;55.45;101845.56;4967272;28;98094;-71
2022/07/02 02:04:37;;;;;;;9.57;7.70;;;;;;;20.89;55.84;101848.34;4967694;28;99205;-71
2022/07/02 02:07:04;;;;;;;14.40;7.78;;;;;;;21.01;55.37;101855.66;4966941;28;98954;-71
2022/07/02 02:09:30;;;;;;;8.82;7.93;;;;;;;20.93;55.70;101849.03;4968997;28;98619;-70
2022/07/02 02:11:57;;;;;;;10.18;7.50;;;;;;;20.89;55.68;101861.78;4966930;28;97954;-70
2022/07/02 02:14:24;;;;;;;13.30;7.30;;;;;;;20.81;55.53;101863.19;4969600;28;100215;-70
2022/07/02 02:16:51;;;;;;;9.77;7.65;;;;;;;20.73;55.75;101862.81;4966485;28;100560;-70
2022/07/02 02:19:18;;;;;;;13.00;8.27;;;;;;;20.75;55.81;101867.13;4969728;28;96957;-70
2022/07/02 02:21:44;;;;;;;9.07;7.53;;;;;;;20.79;56.18;101866.00;4968924;28;98666;-70
2022/07/02 02:24:10;;;;;;;12.15;8.77;;;;;;;20.67;55.86;101869.44;4969701;28;99283;-70
2022/07/02 02:26:37;;;;;;;10.80;8.52;;;;;;;20.56;56.05;101871.88;4966564;28;98966;-70
2022/07/02 02:29:03;;;;;;;11.40;7.72;;;;;;;20.61;56.18;101869.78;4968194;28;97024;-70
2022/07/02 02:31:31;;;;;;;10.73;8.63;;;;;;;20.61;56.16;101869.78;4971100;28;96911;-72
2022/07/02 02:33:58;;;;;;;11.57;8.10;;;;;;;20.76;55.58;101879.59;4965662;28;99016;-70
2022/07/02 02:36:24;;;;;;;10.60;8.57;;;;;;;20.61;55.78;101875.16;4966911;28;100826;-71
2022/07/02 02:38:51;;;;;;;10.48;9.02;;;;;;;20.66;55.58;101878.44;4967836;28;97006;-72
2022/07/02 02:41:17;;;;;;;10.27;8.43;;;;;;;20.78;55.15;101890.25;4967011;28;97249;-71
2022/07/02 02:43:43;;;;;;;11.35;8.60;;;;;;;20.54;55.67;101884.53;4968811;28;98280;-70
2022/07/02 02:46:10;;;;;;;9.43;8.32;;;;;;;20.58;55.79;101880.69;4966629;28;101101;-71
2022/07/02 02:48:38;;;;;;;10.32;8.23;;;;;;;20.58;55.72;101880.69;4968277;28;97179;-70
2022/07/02 02:51:07;;;;;;;13.95;8.32;;;;;;;20.76;55.62;101881.41;4969709;28;96865;-71
2022/07/02 02:53:33;;;;;;;13.30;8.15;;;;;;;20.51;56.13;101876.66;4971643;28;99583;-71
2022/07/02 02:56:01;;;;;;;10.50;8.25;;;;;;;20.44;56.43;101884.19;4967752;28;97600;-72
2022/07/02 02:58:27;;;;;;;10.35;8.68;;;;;;;20.51;56.41;101882.88;4976219;28;97535;-70
2022/07/02 03:00:54;;;;;;;9.65;8.07;;;;;;;20.51;56.42;101884.69;4969281;28;97335;-70
2022/07/02 03:03:20;;;;;;;9.55;8.30;;;;;;;20.52;56.09;101886.44;4967885;28;99106;-70
2022/07/02 03:05:48;;;;;;;13.48;8.93;;;;;;;20.57;56.22;101895.06;4965455;28;98777;-70
2022/07/02 03:08:15;;;;;;;8.80;8.00;;;;;;;20.47;56.49;101891.22;4964397;28;97198;-69
2022/07/02 03:10:41;;;;;;;10.60;8.50;;;;;;;20.37;57.51;101895.38;4968142;28;97538;-71
2022/07/02 03:13:08;;;;;;;11.90;9.13;;;;;;;20.37;57.26;101896.25;4968322;28;100993;-70
2022/07/02 03:15:34;;;;;;;10.68;8.98;;;;;;;20.28;56.94;101900.28;4966331;28;97678;-70
2022/07/02 03:18:00;;;;;;;11.35;9.18;;;;;;;20.41;57.28;101908.56;4966225;28;97552;-70
2022/07/02 03:20:27;;;;;;;12.45;8.80;;;;;;;20.51;56.83;101904.38;4966384;28;97694;-70
2022/07/02 03:22:55;;;;;;;9.50;8.52;;;;;;;20.50;57.42;101920.56;4967832;28;98990;-71
2022/07/02 03:25:21;;;;;;;9.93;8.93;;;;;;;20.34;57.18;101914.38;4967385;28;98866;-71
2022/07/02 03:27:47;;;;;;;9.73;8.25;;;;;;;20.54;56.76;101917.63;4965594;28;97122;-70
2022/07/02 03:30:14;;;;;;;11.77;9.18;;;;;;;20.60;56.09;101922.63;4969181;28;99422;-70
2022/07/02 03:32:40;;;;;;;12.02;9.27;;;;;;;20.56;56.47;101925.56;4965898;28;102062;-70
2022/07/02 03:35:08;;;;;;;11.65;8.85;;;;;;;20.60;56.58;101929.81;4967172;28;98809;-71
2022/07/02 03:37:34;;;;;;;11.90;9.50;;;;;;;20.75;56.19;101926.22;4965827;28;97504;-70
2022/07/02 03:40:02;;;;;;;10.98;8.68;;;;;;;20.68;56.42;101924.84;4968007;28;98945;-70
2022/07/02 03:42:28;;;;;;;9.25;7.93;;;;;;;20.37;57.10;101920.41;4968672;28;99098;-70
2022/07/02 03:44:54;;;;;;;12.30;9.10;;;;;;;20.40;56.85;101933.66;4966339;28;99102;-70
2022/07/02 03:47:21;;;;;;;9.82;8.85;;;;;;;20.40;57.36;101940.84;4965163;28;97257;-70
2022/07/02 03:49:47;;;;;;;9.80;8.80;;;;;;;20.49;57.19;101941.16;4967149;28;98528;-71
2022/07/02 03:52:14;;;;;;;10.48;9.30;;;;;;;20.49;56.53;101940.31;4966816;28;100320;-70
2022/07/02 03:54:40;;;;;;;10.82;9.50;;;;;;;20.41;56.55;101942.59;4968843;28;99322;-70
2022/07/02 03:57:08;;;;;;;12.68;9.60;;;;;;;20.50;56.36;101942.03;4971595;28;97373;-70
2022/07/02 03:59:34;;;;;;;11.07;9.18;;;;;;;20.35;56.76;101949.16;4964628;28;97290;-71
2022/07/02 04:02:01;;;;;;;11.93;9.60;;;;;;;20.33;56.71;101944.84;4966846;28;99340;-71
2022/07/02 04:04:27;;;;;;;10.32;9.27;;;;;;;20.45;55.90;101944.13;4968916;28;99445;-71
2022/07/02 04:06:54;;;;;;;11.30;9.40;;;;;;;20.76;55.37;101954.81;4967949;28;97054;-70
2022/07/02 04:09:20;;;;;;;11.68;9.35;;;;;;;20.89;55.27;101958.50;4969540;28;97024;-70
2022/07/02 04:11:46;;;;;;;9.85;8.82;;;;;;;20.87;55.12;101948.81;4964557;28;99860;-71
2022/07/02 04:14:14;;;;;;;12.05;8.43;;;;;;;20.78;55.09;101952.03;4965053;28;99834;-71
2022/07/02 04:16:41;;;;;;;11.52;9.43;;;;;;;20.87;54.91;101955.03;4969272;28;98072;-70
2022/07/02 04:19:07;;;;;;;11.00;8.88;;;;;;;21.20;54.22;101962.09;4967358;28;97071;-71
2022/07/02 04:21:34;;;;;;;10.70;9.35;;;;;;;21.31;53.87;101957.78;4966501;28;99308;-71
2022/07/02 04:24:00;;;;;;;10.73;8.48;;;;;;;21.41;53.71;101968.81;4965941;28;99149;-71
2022/07/02 04:26:27;;;;;;;12.18;8.13;;;;;;;21.41;53.60;101963.44;4966402;28;97027;-70
2022/07/02 04:28:53;;;;;;;9.95;8.95;;;;;;;21.60;53.45;101966.72;4969370;28;97197;-71
2022/07/02 04:31:21;;;;;;;11.77;9.10;;;;;;;21.52;53.26;101969.03;4970073;28;99066;-71
2022/07/02 04:33:47;;;;;;;12.60;8.48;;;;;;;21.59;53.32;101967.69;4968546;28;98968;-70
2022/07/02 04:36:14;;;;;;;10.48;8.80;;;;;;;21.78;52.70;101965.56;4970399;28;96809;-70
2022/07/02 04:38:40;;;;;;;12.90;8.80;;;;;;;21.87;52.15;101972.19;4969968;28;97738;-71
2022/07/02 04:41:06;;;;;;;9.80;8.25;;;;;;;21.91;51.90;101965.66;4970945;28;99315;-71
2022/07/02 04:43:33;;;;;;;17.40;8.48;;;;;;;21.81;52.19;101967.19;4970659;28;98856;-71
2022/07/02 04:45:59;;;;;;;9.60;8.50;;;;;;;22.06;51.76;101966.50;4967579;28;98166;-70
2022/07/02 04:48:27;;;;;;;9.40;8.02;;;;;;;22.20;50.89;101972.75;4970608;28;96958;-71
2022/07/02 04:50:54;;;;;;;27.30;7.95;;;;;;;22.13;51.26;101963.34;4970446;28;98198;-72
2022/07/02 04:53:21;;;;;;;9.55;7.93;;;;;;;22.24;50.68;101966.22;4973639;28;98836;-70
2022/07/02 04:55:47;;;;;;;11.52;7.85;;;;;;;22.36;50.30;101964.53;4971517;28;98864;-71
2022/07/02 04:58:13;;;;;;;10.00;7.93;;;;;;;22.43;50.15;101976.66;4966287;28;98903;-71
2022/07/02 05:00:40;;;;;;;13.88;8.18;;;;;;;22.30;50.30;101975.72;4968015;28;99087;-71
2022/07/02 05:03:06;;;;;;;9.05;7.57;;;;;;;22.32;50.79;101978.31;4969334;28;101970;-71
2022/07/02 05:05:34;;;;;;;7.63;6.93;;;;;;;23.04;49.15;101973.41;4969144;28;96874;-72
2022/07/02 05:08:00;;;;;;;7.28;6.43;;;;;;;24.04;46.57;101972.66;4967577;28;97321;-72
2022/07/02 05:10:27;;;;;;;7.72;5.88;;;;;;;25.78;43.28;101972.81;4969973;28;98985;-72
2022/07/02 05:12:53;;;;;;;8.30;5.60;;;;;;;25.75;41.81;101972.19;4968863;28;98838;-71
2022/07/02 05:15:20;;;;;;;6.15;5.32;;;;;;;25.73;42.32;101974.19;4970667;28;96963;-71
2022/07/02 05:17:46;;;;;;;7.60;6.00;;;;;;;25.54;42.68;101969.31;4968883;28;98567;-71
2022/07/02 05:20:13;;;;;;;6.50;5.90;;;;;;;26.90;39.62;101978.06;4968267;28;99363;-73
2022/07/02 05:22:40;;;;;;;7.38;5.55;;;;;;;26.87;38.96;101984.56;4972187;28;98817;-74
2022/07/02 05:25:08;;;;;;;6.53;5.57;;;;;;;26.09;39.91;101992.00;4968691;28;96816;-72
2022/07/02 05:27:34;;;;;;;9.25;6.15;;;;;;;25.22;41.73;101984.50;4967837;28;97152;-72
2022/07/02 05:30:01;;;;;;;7.65;5.28;;;;;;;25.02;42.62;101991.44;4966994;28;98952;-71
2022/07/02 05:32:27;;;;;;;6.90;5.72;;;;;;;24.53;43.40;101988.88;4970727;28;98855;-71
2022/07/02 05:34:54;;;;;;;5.57;5.00;;;;;;;24.58;43.54;101998.34;4967557;28;97677;-70
2022/07/02 05:37:20;;;;;;;6.65;5.95;;;;;;;24.33;44.17;101992.19;4967019;28;98839;-71
2022/07/02 05:39:51;;;;;;;8.50;5.93;;;;;;;24.27;44.05;101998.91;4967497;28;99078;-71
2022/07/02 05:42:17;;;;;;;8.48;5.80;;;;;;;24.19;44.04;101996.75;4968617;28;99079;-71
2022/07/02 05:44:44;;;;;;;7.72;5.07;;;;;;;23.98;44.69;102002.81;4969687;28;98744;-71
2022/07/02 05:47:10;;;;;;;7.25;5.78;;;;;;;23.82;44.97;102003.94;4968086;28;96902;-70
2022/07/02 05:49:37;;;;;;;8.50;5.85;;;;;;;24.01;44.51;101998.06;4967823;28;97166;-71
2022/07/02 05:52:04;;;;;;;5.75;5.13;;;;;;;24.00;44.40;102007.13;4972757;28;98921;-71
2022/07/02 05:54:30;;;;;;;9.25;5.57;;;;;;;24.18;44.15;102004.94;4972245;28;98572;-70
2022/07/02 05:56:58;;;;;;;7.20;5.50;;;;;;;24.37;43.62;102004.47;4966895;28;99150;-71
2022/07/02 05:59:25;;;;;;;10.38;5.68;;;;;;;24.31;43.76;102007.63;4967174;28;98534;-73
2022/07/02 06:01:51;;;;;;;11.60;5.85;;;;;;;24.34;43.63;102010.13;4966273;28;98847;-71
2022/07/02 06:04:18;;;;;;;6.40;5.45;;;;;;;23.94;44.63;102012.97;4968175;28;97665;-71
2022/07/02 06:09:28;;;;;;;11.30;5.43;;;;;;;24.02;45.05;102017.84;4966412;28;98458;-70
2022/07/02 06:11:55;;;;;;;6.47;5.88;;;;;;;24.30;43.65;102025.69;4966992;28;99893;-71
2022/07/02 06:14:23;;;;;;;6.07;5.05;;;;;;;24.52;44.06;102023.13;4968661;28;98420;-70
2022/07/02 06:16:49;;;;;;;8.23;5.13;;;;;;;24.59;43.55;102023.53;4965673;28;96959;-70
2022/07/02 06:19:16;;;;;;;8.15;5.78;;;;;;;25.04;42.79;102026.50;4968547;28;102274;-70
2022/07/02 06:21:42;;;;;;;7.10;5.88;;;;;;;24.72;42.57;102028.91;4970198;28;99107;-71
2022/07/02 06:24:10;;;;;;;18.13;11.38;;;;;;;25.00;42.36;102026.75;4967605;28;97097;-70
2022/07/02 06:26:37;;;;;;;9.82;5.03;;;;;;;24.98;42.79;102028.69;4967338;28;97008;-70
2022/07/02 06:29:04;;;;;;;5.90;5.25;;;;;;;25.18;41.97;102037.13;4965332;28;101788;-72
2022/07/02 06:31:33;;;;;;;5.65;4.65;;;;;;;25.21;42.30;102042.28;4967034;28;98895;-70
2022/07/02 06:33:59;;;;;;;8.82;5.07;;;;;;;25.28;41.98;102040.84;4968093;28;98523;-70
2022/07/02 06:36:26;;;;;;;4.80;4.40;;;;;;;25.50;41.62;102037.34;4964328;28;97577;-71
2022/07/02 06:38:52;;;;;;;10.63;4.38;;;;;;;25.55;41.67;102043.25;4969588;28;101767;-70
2022/07/02 06:44:05;;;;;;;7.32;4.75;;;;;;;26.11;40.08;102042.38;4967375;28;98709;-71
2022/07/02 06:46:33;;;;;;;4.80;4.25;;;;;;;25.98;40.63;102051.59;4967306;28;97062;-72
2022/07/02 06:49:08;;;;;;;5.28;4.78;;;;;;;26.31;39.76;102051.63;4969348;28;101424;-70
2022/07/02 06:51:34;;;;;;;9.32;4.00;;;;;;;26.42;39.52;102051.59;4971956;28;101349;-72
2022/07/02 06:54:01;;;;;;;4.55;3.88;;;;;;;26.93;38.56;102045.59;4969498;28;96946;-71
2022/07/02 06:56:29;;;;;;;5.97;4.03;;;;;;;27.23;36.63;102045.72;4966750;28;98505;-70
2022/07/02 06:58:56;;;;;;;6.07;3.83;;;;;;;27.21;37.59;102050.41;4964760;28;99453;-71
2022/07/02 07:01:23;;;;;;;4.68;3.60;;;;;;;26.77;38.69;102064.09;4964802;28;98960;-71
2022/07/02 07:03:51;;;;;;;7.55;4.18;;;;;;;26.55;38.61;102057.75;4965395;28;98867;-71
2022/07/02 07:06:18;;;;;;;6.97;3.40;;;;;;;26.36;37.80;102053.94;4964453;28;97612;-70
2022/07/02 07:08:45;;;;;;;7.45;3.45;;;;;;;26.45;36.91;102051.34;4963231;28;97876;-71
2022/07/02 07:11:12;;;;;;;7.93;3.25;;;;;;;26.38;37.30;102052.84;4964437;28;99315;-71
2022/07/02 07:13:38;;;;;;;7.10;3.20;;;;;;;26.40;37.55;102052.69;4966395;28;97593;-70
2022/07/02 07:16:05;;;;;;;7.78;3.08;;;;;;;26.56;36.32;102058.59;4966014;28;97114;-71
2022/07/02 07:18:32;;;;;;;6.10;2.95;;;;;;;26.45;36.88;102055.94;4964305;28;100301;-70
2022/07/02 07:21:00;;;;;;;3.92;2.78;;;;;;;26.87;36.63;102056.91;4966289;28;99325;-70
2022/07/02 07:23:27;;;;;;;3.53;2.90;;;;;;;26.74;37.19;102057.06;4967823;28;96908;-71
2022/07/02 07:25:53;;;;;;;6.80;2.80;;;;;;;26.88;36.28;102053.22;4964459;28;96801;-70
2022/07/02 07:28:19;;;;;;;2.70;2.50;;;;;;;27.19;36.40;102056.94;4969774;28;99729;-71
2022/07/02 07:30:46;;;;;;;3.38;2.50;;;;;;;27.01;36.11;102064.78;4964331;28;98782;-71
2022/07/02 07:33:12;;;;;;;5.85;2.70;;;;;;;27.22;35.07;102063.00;4965176;28;97748;-71
2022/07/02 07:35:39;;;;;;;3.83;2.78;;;;;;;27.14;35.44;102065.47;4965625;28;98364;-71
2022/07/02 07:38:06;;;;;;;2.60;1.77;;;;;;;26.94;34.13;102063.59;4961284;28;99706;-70
2022/07/02 07:40:33;;;;;;;5.07;2.10;;;;;;;27.06;32.54;102062.56;4962411;28;98150;-72
2022/07/02 07:42:59;;;;;;;5.78;1.63;;;;;;;27.59;32.58;102068.00;4967641;28;96809;-70
2022/07/02 07:45:26;;;;;;;3.53;2.22;;;;;;;27.83;33.56;102073.16;4968321;28;98236;-72
2022/07/02 07:47:52;;;;;;;3.15;2.15;;;;;;;27.89;33.70;102072.63;4962082;28;98854;-70
2022/07/02 07:50:19;;;;;;;4.90;1.92;;;;;;;27.70;33.17;102070.63;4963235;28;100268;-71
2022/07/02 07:52:45;;;;;;;2.80;1.70;;;;;;;27.73;31.20;102079.38;4966223;28;96915;-71
2022/07/02 07:55:13;;;;;;;5.03;1.40;;;;;;;27.53;29.78;102074.81;4966781;28;96807;-71
2022/07/02 07:57:39;;;;;;;3.88;1.27;;;;;;;27.93;29.34;102077.63;4962068;28;99124;-71
2022/07/02 08:00:07;;;;;;;1.35;1.02;;;;;;;27.56;30.77;102081.84;4965988;28;99033;-71
2022/07/02 08:02:33;;;;;;;3.75;1.55;;;;;;;27.22;31.72;102078.41;4969859;28;97071;-71
2022/07/02 08:05:00;;;;;;;3.35;1.67;;;;;;;27.48;31.76;102079.75;4971964;28;98972;-71
2022/07/02 08:07:26;;;;;;;4.63;1.45;;;;;;;27.31;31.24;102074.88;4970863;28;99155;-71
2022/07/02 08:09:54;;;;;;;2.45;1.33;;;;;;;27.43;30.79;102083.84;4972806;28;101376;-70
2022/07/02 08:12:22;;;;;;;2.45;1.23;;;;;;;27.66;29.85;102086.34;4969936;28;96837;-70
2022/07/02 08:14:48;;;;;;;2.55;1.17;;;;;;;27.86;30.24;102078.31;4973068;28;97856;-72
2022/07/02 08:17:15;;;;;;;4.00;1.63;;;;;;;28.04;30.46;102082.97;4974971;28;98893;-72
2022/07/02 08:19:42;;;;;;;3.33;1.52;;;;;;;28.13;30.62;102086.75;4971290;28;99248;-71
2022/07/02 08:22:11;;;;;;;2.65;1.10;;;;;;;28.32;29.21;102086.88;4964413;28;97222;-72
2022/07/02 08:24:37;;;;;;;4.13;1.30;;;;;;;28.44;29.27;102096.63;4970834;28;97047;-72
2022/07/02 08:27:04;;;;;;;3.13;1.08;;;;;;;27.60;28.84;102100.44;4971412;28;99720;-72
2022/07/02 08:29:32;;;;;;;2.70;1.08;;;;;;;27.00;29.81;102098.31;4970613;28;101204;-73
2022/07/02 08:31:58;;;;;;;4.05;1.02;;;;;;;26.95;29.73;102087.00;4973073;28;97237;-73
2022/07/02 08:34:25;;;;;;;5.15;1.10;;;;;;;27.42;30.10;102095.69;4972184;28;96875;-72
2022/07/02 08:36:52;;;;;;;1.55;1.10;;;;;;;27.77;28.94;102098.97;4958823;28;98806;-73
2022/07/02 08:39:18;;;;;;;3.78;1.08;;;;;;;28.08;28.37;102100.75;4972066;28;98827;-72
2022/07/02 08:41:50;;;;;;;1.15;0.70;;;;;;;28.73;28.02;102091.28;4969625;28;97409;-72
2022/07/02 08:44:20;;;;;;;4.30;1.20;;;;;;;28.80;28.25;102102.50;4976334;28;97215;-72
2022/07/02 08:46:50;;;;;;;4.20;0.98;;;;;;;28.96;27.33;102105.53;4965102;28;100661;-71
2022/07/02 08:49:19;;;;;;;4.65;1.10;;;;;;;28.62;27.97;102112.31;4966190;28;98921;-72
2022/07/02 08:51:49;;;;;;;4.68;0.90;;;;;;;28.20;28.42;102104.25;4971975;28;97168;-74
2022/07/02 08:54:15;;;;;;;2.42;1.10;;;;;;;27.59;29.41;102103.28;4979617;28;97218;-70
2022/07/02 08:56:43;;;;;;;4.30;1.30;;;;;;;27.70;29.18;102101.34;4976870;28;98939;-72
2022/07/02 08:59:09;;;;;;;5.30;1.17;;;;;;;27.43;30.08;102092.88;4977048;28;99198;-73
2022/07/02 09:01:37;;;;;;;2.42;0.80;;;;;;;27.18;29.29;102090.50;4975019;28;97153;-72
2022/07/02 09:04:05;;;;;;;2.17;1.20;;;;;;;27.77;29.01;102090.81;4972803;28;96844;-72
2022/07/02 09:06:36;;;;;;;2.05;1.10;;;;;;;27.56;28.47;102081.84;4972374;28;99225;-71
2022/07/02 09:09:03;;;;;;;3.08;1.40;;;;;;;27.79;27.97;102077.97;4971614;28;99009;-71
2022/07/02 09:11:30;;;;;;;4.15;1.15;;;;;;;27.26;28.55;102086.16;4973207;28;97162;-73
2022/07/02 09:13:57;;;;;;;1.92;1.20;;;;;;;26.50;29.70;102089.78;4978732;28;97572;-72
2022/07/02 09:16:25;;;;;;;1.38;1.10;;;;;;;26.21;30.02;102083.09;4975499;28;98991;-71
2022/07/02 09:18:51;;;;;;;5.70;1.00;;;;;;;26.16;29.90;102088.03;4975455;28;97910;-72
2022/07/02 09:21:19;;;;;;;5.00;1.52;;;;;;;25.74;30.39;102085.03;4978506;28;96881;-71
2022/07/02 09:23:47;;;;;;;6.50;1.17;;;;;;;26.15;30.12;102087.19;4968354;28;97250;-72
2022/07/02 09:26:18;;;;;;;3.15;1.02;;;;;;;26.46;29.13;102080.16;4972759;28;97576;-72
2022/07/02 09:28:54;;;;;;;7.88;2.13;;;;;;;26.69;28.76;102081.00;4974226;28;99146;-71
2022/07/02 09:31:21;;;;;;;2.42;1.50;;;;;;;26.90;28.01;102062.13;4979446;28;97112;-71
2022/07/02 09:33:47;;;;;;;4.22;1.20;;;;;;;26.44;28.43;102063.19;4974308;28;97402;-72
2022/07/02 09:36:14;;;;;;;1.75;1.00;;;;;;;26.73;28.50;102060.78;4974096;28;99216;-72
2022/07/02 09:38:43;;;;;;;2.35;0.98;;;;;;;27.34;27.75;102061.94;4972914;28;99525;-71
2022/07/02 09:41:12;;;;;;;3.58;1.10;;;;;;;27.51;27.19;102057.75;4978454;28;97082;-72
2022/07/02 09:43:45;;;;;;;1.50;1.05;;;;;;;27.52;26.76;102064.09;4972509;28;97119;-73
2022/07/02 09:46:16;;;;;;;3.33;1.02;;;;;;;26.99;27.66;102058.63;4977358;28;99435;-71
2022/07/02 09:48:43;;;;;;;3.38;0.82;;;;;;;27.74;27.12;102058.53;4969894;28;99305;-72
2022/07/02 09:51:10;;;;;;;3.15;1.10;;;;;;;27.92;26.82;102056.91;4980178;28;97148;-71
2022/07/02 09:53:48;;;;;;;4.55;1.25;;;;;;;28.02;26.74;102057.81;4977086;28;97995;-70
2022/07/02 09:56:15;;;;;;;2.47;0.82;;;;;;;28.35;26.64;102061.28;4976531;28;98046;-72
2022/07/02 09:58:41;;;;;;;5.40;0.80;;;;;;;28.17;26.04;102060.19;4974432;28;97697;-71
2022/07/02 10:01:08;;;;;;;1.35;0.80;;;;;;;28.16;25.90;102055.78;4968511;28;96862;-76
2022/07/02 10:03:46;;;;;;;4.35;1.05;;;;;;;27.87;25.34;102045.59;4974228;28;97475;-71
2022/07/02 10:06:13;;;;;;;7.78;0.98;;;;;;;27.78;26.50;102057.25;4974511;28;99594;-71
2022/07/02 10:08:41;;;;;;;2.63;0.90;;;;;;;28.01;27.05;102058.81;4976215;28;99067;-71
2022/07/02 10:11:09;;;;;;;3.88;0.95;;;;;;;27.73;26.81;102064.94;4979756;28;97155;-70
2022/07/02 10:13:37;;;;;;;1.58;0.85;;;;;;;27.74;26.51;102058.53;4983849;28;97224;-72
2022/07/02 10:16:04;;;;;;;5.82;1.60;;;;;;;27.70;26.02;102060.63;4971322;28;98051;-71
2022/07/02 10:18:31;;;;;;;4.25;2.10;;;;;;;28.09;26.38;102053.53;4977424;28;98912;-72
2022/07/02 10:20:59;;;;;;;5.00;1.50;;;;;;;28.34;26.36;102063.13;4973980;28;97147;-71
2022/07/02 10:23:26;;;;;;;3.38;1.30;;;;;;;28.75;25.54;102061.28;4977266;28;96773;-70
2022/07/02 10:25:54;;;;;;;3.03;1.15;;;;;;;28.78;24.48;102056.41;4968745;28;99264;-71
2022/07/02 10:28:22;;;;;;;5.47;0.80;;;;;;;28.52;24.64;102057.88;4978064;28;100486;-70
2022/07/02 10:30:50;;;;;;;1.20;0.82;;;;;;;28.13;25.37;102052.28;4974657;28;97015;-71
2022/07/02 10:33:23;;;;;;;3.10;0.65;;;;;;;28.21;25.41;102058.94;4984190;28;97088;-71
2022/07/02 10:35:50;;;;;;;5.03;0.77;;;;;;;28.31;24.61;102051.66;4967821;28;98960;-73
2022/07/02 10:38:27;;;;;;;4.22;0.80;;;;;;;28.17;24.90;102057.47;4981765;28;99442;-71
2022/07/02 10:40:54;;;;;;;3.65;0.70;;;;;;;28.20;25.40;102055.34;4971606;28;96841;-71
2022/07/02 10:43:23;;;;;;;2.05;0.63;;;;;;;28.17;24.63;102055.59;4978839;28;96942;-71
2022/07/02 10:45:49;;;;;;;0.73;0.60;;;;;;;28.50;24.89;102051.72;4971604;28;99170;-70
2022/07/02 10:48:16;;;;;;;2.58;0.68;;;;;;;28.80;24.92;102048.09;4977268;28;98873;-70
2022/07/02 10:50:45;;;;;;;1.63;0.68;;;;;;;28.91;24.74;102051.53;4972469;28;97141;-72
2022/07/02 10:53:12;;;;;;;4.28;0.88;;;;;;;28.99;24.97;102047.25;4983066;28;96882;-72
2022/07/02 10:55:40;;;;;;;2.45;0.98;;;;;;;29.11;24.25;102048.81;4972575;28;99128;-71
2022/07/02 10:58:09;;;;;;;2.15;1.02;;;;;;;29.10;23.27;102055.25;4977146;28;98840;-70
2022/07/02 11:00:40;;;;;;;2.88;0.85;;;;;;;29.37;23.74;102046.41;4978146;28;97176;-71
2022/07/02 11:03:12;;;;;;;2.38;0.70;;;;;;;29.22;23.31;102040.50;4979231;28;97138;-71
2022/07/02 11:05:52;;;;;;;3.33;1.00;;;;;;;28.72;23.52;102048.75;4969826;28;99073;-71
2022/07/02 11:08:44;;;;;;;2.05;0.90;;;;;;;28.66;23.92;102038.44;4977519;28;99010;-70
2022/07/02 11:11:13;;;;;;;1.52;0.82;;;;;;;28.46;23.92;102033.97;4978928;28;96784;-70
2022/07/02 11:13:42;;;;;;;1.88;0.65;;;;;;;28.40;24.46;102034.53;4975777;28;97147;-70
2022/07/02 11:16:19;;;;;;;2.53;0.82;;;;;;;28.50;24.40;102035.41;4981860;28;99493;-71
2022/07/02 11:18:47;;;;;;;4.05;0.90;;;;;;;28.59;23.75;102028.28;4973881;28;99434;-71
2022/07/02 11:21:14;;;;;;;2.05;1.23;;;;;;;28.62;23.98;102028.00;4981110;28;96945;-71
2022/07/02 11:23:40;;;;;;;1.33;0.68;;;;;;;28.97;23.26;102019.31;4975087;28;96773;-70
2022/07/02 11:26:08;;;;;;;4.82;1.00;;;;;;;28.97;23.21;102022.03;4977338;28;99640;-71
2022/07/02 11:28:34;;;;;;;1.88;0.80;;;;;;;29.26;23.50;102017.44;4971233;28;99153;-70
2022/07/02 11:31:04;;;;;;;2.60;0.85;;;;;;;28.91;23.46;102024.34;4977518;28;96727;-70